Terminal Aerodrome Forecast
Issued by NWS

Home | Current Version | Previous Version | Text Only | Print | Product List | Glossary On
Versions: 1 2 3 4 5 6 7 8 9 10 11 12 13 14 15 16 17 18 19
000
FTPA31 PHFO 090400 AAA
TAFHNY
TAF AMD
PHNY 090400Z 0904/0924 VRB06KT P6SM -SHRA SCT004 BKN020
      TEMPO 0904/0907 2SM SHRA BR BKN004 OVC015
     FM091100 VRB04KT P6SM VCSH SCT015 BKN035=

USA.gov is the U.S. government's official web portal to all federal, state and local government web resources and services.